sensor_id;sensor_type;location;lat;lon;timestamp;temperature;humidity
48264;DHT22;34086;51.076;13.722;2023-03-02T00:00:21;-1.60;99.90
48264;DHT22;34086;51.076;13.722;2023-03-02T00:01:24;-1.70;99.90
48264;DHT22;34086;51.076;13.722;2023-03-02T00:02:25;-1.70;99.90
48264;DHT22;34086;51.076;13.722;2023-03-02T00:03:26;-1.70;99.90
48264;DHT22;34086;51.076;13.722;2023-03-02T00:04:31;-1.70;99.90
48264;DHT22;34086;51.076;13.722;2023-03-02T00:05:33;-1.60;99.90
48264;DHT22;34086;51.076;13.722;2023-03-02T00:06:35;-1.70;99.90
48264;DHT22;34086;51.076;13.722;2023-03-02T00:07:37;-1.70;99.90
48264;DHT22;34086;51.076;13.722;2023-03-02T00:08:38;-1.70;99.90
48264;DHT22;34086;51.076;13.722;2023-03-02T00:09:38;-1.70;99.90
48264;DHT22;34086;51.076;13.722;2023-03-02T00:10:39;-1.70;99.90
48264;DHT22;34086;51.076;13.722;2023-03-02T00:11:40;-1.70;99.90
48264;DHT22;34086;51.076;13.722;2023-03-02T00:12:41;-1.70;99.90
48264;DHT22;34086;51.076;13.722;2023-03-02T00:13:42;-1.80;99.90
48264;DHT22;34086;51.076;13.722;2023-03-02T00:14:43;-1.80;99.90
48264;DHT22;34086;51.076;13.722;2023-03-02T00:15:44;-1.80;99.90
48264;DHT22;34086;51.076;13.722;2023-03-02T00:16:44;-1.80;99.90
48264;DHT22;34086;51.076;13.722;2023-03-02T00:17:45;-1.80;99.90
48264;DHT22;34086;51.076;13.722;2023-03-02T00:18:46;-1.80;99.90
48264;DHT22;34086;51.076;13.722;2023-03-02T00:19:46;-1.80;99.90
48264;DHT22;34086;51.076;13.722;2023-03-02T00:20:47;-1.80;99.90
48264;DHT22;34086;51.076;13.722;2023-03-02T00:21:48;-1.80;99.90
48264;DHT22;34086;51.076;13.722;2023-03-02T00:22:48;-1.70;99.90
48264;DHT22;34086;51.076;13.722;2023-03-02T00:23:50;-1.70;99.90
48264;DHT22;34086;51.076;13.722;2023-03-02T00:24:51;-1.70;99.90
48264;DHT22;34086;51.076;13.722;2023-03-02T00:25:51;-1.70;99.90
48264;DHT22;34086;51.076;13.722;2023-03-02T00:26:52;-1.70;99.90
48264;DHT22;34086;51.076;13.722;2023-03-02T00:27:52;-1.70;99.90
48264;DHT22;34086;51.076;13.722;2023-03-02T00:28:53;-1.70;99.90
48264;DHT22;34086;51.076;13.722;2023-03-02T00:29:57;-1.70;99.90
48264;DHT22;34086;51.076;13.722;2023-03-02T00:30:57;-1.70;99.90
48264;DHT22;34086;51.076;13.722;2023-03-02T00:31:58;-1.70;99.90
48264;DHT22;34086;51.076;13.722;2023-03-02T00:32:59;-1.80;99.90
48264;DHT22;34086;51.076;13.722;2023-03-02T00:33:59;-1.80;99.90
48264;DHT22;34086;51.076;13.722;2023-03-02T00:35:00;-1.80;99.90
48264;DHT22;34086;51.076;13.722;2023-03-02T00:36:01;-1.80;99.90
48264;DHT22;34086;51.076;13.722;2023-03-02T00:37:02;-1.80;99.90
48264;DHT22;34086;51.076;13.722;2023-03-02T00:38:03;-1.80;99.90
48264;DHT22;34086;51.076;13.722;2023-03-02T00:39:03;-1.90;99.90
48264;DHT22;34086;51.076;13.722;2023-03-02T00:40:06;-1.90;99.90
48264;DHT22;34086;51.076;13.722;2023-03-02T00:41:10;-1.90;99.90
48264;DHT22;34086;51.076;13.722;2023-03-02T00:42:11;-1.90;99.90
48264;DHT22;34086;51.076;13.722;2023-03-02T00:43:12;-1.90;99.90
48264;DHT22;34086;51.076;13.722;2023-03-02T00:44:13;-1.90;99.90
48264;DHT22;34086;51.076;13.722;2023-03-02T00:45:16;-2.00;99.90
48264;DHT22;34086;51.076;13.722;2023-03-02T00:46:19;-2.00;99.90
48264;DHT22;34086;51.076;13.722;2023-03-02T00:47:20;-2.00;99.90
48264;DHT22;34086;51.076;13.722;2023-03-02T00:48:21;-2.00;99.90
48264;DHT22;34086;51.076;13.722;2023-03-02T00:49:22;-2.00;99.90
48264;DHT22;34086;51.076;13.722;2023-03-02T00:50:23;-2.00;99.90
48264;DHT22;34086;51.076;13.722;2023-03-02T00:51:23;-2.00;99.90
48264;DHT22;34086;51.076;13.722;2023-03-02T00:52:24;-2.00;99.90
48264;DHT22;34086;51.076;13.722;2023-03-02T00:53:25;-2.00;99.90
48264;DHT22;34086;51.076;13.722;2023-03-02T00:54:25;-2.00;99.90
48264;DHT22;34086;51.076;13.722;2023-03-02T00:55:26;-2.00;99.90
48264;DHT22;34086;51.076;13.722;2023-03-02T00:56:27;-2.00;99.90
48264;DHT22;34086;51.076;13.722;2023-03-02T00:57:27;-2.10;99.90
48264;DHT22;34086;51.076;13.722;2023-03-02T00:58:30;-2.10;99.90
48264;DHT22;34086;51.076;13.722;2023-03-02T00:59:31;-2.10;99.90
48264;DHT22;34086;51.076;13.722;2023-03-02T01:00:38;-2.10;99.90
48264;DHT22;34086;51.076;13.722;2023-03-02T01:01:41;-2.10;99.90
48264;DHT22;34086;51.076;13.722;2023-03-02T01:02:42;-2.10;99.90
48264;DHT22;34086;51.076;13.722;2023-03-02T01:03:44;-2.10;99.90
48264;DHT22;34086;51.076;13.722;2023-03-02T01:04:46;-2.10;99.90
48264;DHT22;34086;51.076;13.722;2023-03-02T01:05:47;-2.10;99.90
48264;DHT22;34086;51.076;13.722;2023-03-02T01:06:48;-2.10;99.90
48264;DHT22;34086;51.076;13.722;2023-03-02T01:07:49;-2.10;99.90
48264;DHT22;34086;51.076;13.722;2023-03-02T01:08:49;-2.10;99.90
48264;DHT22;34086;51.076;13.722;2023-03-02T01:09:50;-2.10;99.90
48264;DHT22;34086;51.076;13.722;2023-03-02T01:10:51;-2.10;99.90
48264;DHT22;34086;51.076;13.722;2023-03-02T01:11:52;-2.10;99.90
48264;DHT22;34086;51.076;13.722;2023-03-02T01:12:52;-2.10;99.90
48264;DHT22;34086;51.076;13.722;2023-03-02T01:13:53;-2.10;99.90
48264;DHT22;34086;51.076;13.722;2023-03-02T01:14:53;-2.10;99.90
48264;DHT22;34086;51.076;13.722;2023-03-02T01:16:03;-2.20;99.90
48264;DHT22;34086;51.076;13.722;2023-03-02T01:17:05;-2.10;99.90
48264;DHT22;34086;51.076;13.722;2023-03-02T01:18:06;-2.20;99.90
48264;DHT22;34086;51.076;13.722;2023-03-02T01:19:07;-2.20;99.90
48264;DHT22;34086;51.076;13.722;2023-03-02T01:20:08;-2.20;99.90
48264;DHT22;34086;51.076;13.722;2023-03-02T01:21:14;-2.20;99.90
48264;DHT22;34086;51.076;13.722;2023-03-02T01:22:15;-2.20;99.90
48264;DHT22;34086;51.076;13.722;2023-03-02T01:23:15;-2.20;99.90
48264;DHT22;34086;51.076;13.722;2023-03-02T01:24:16;-2.30;99.90
48264;DHT22;34086;51.076;13.722;2023-03-02T01:25:17;-2.20;99.90
48264;DHT22;34086;51.076;13.722;2023-03-02T01:26:17;-2.20;99.90
48264;DHT22;34086;51.076;13.722;2023-03-02T01:27:18;-2.30;99.90
48264;DHT22;34086;51.076;13.722;2023-03-02T01:28:19;-2.30;99.90
48264;DHT22;34086;51.076;13.722;2023-03-02T01:29:20;-2.30;99.90
48264;DHT22;34086;51.076;13.722;2023-03-02T01:30:21;-2.30;99.90
48264;DHT22;34086;51.076;13.722;2023-03-02T01:31:22;-2.30;99.90
48264;DHT22;34086;51.076;13.722;2023-03-02T01:32:22;-2.30;99.90
48264;DHT22;34086;51.076;13.722;2023-03-02T01:33:23;-2.30;99.90
48264;DHT22;34086;51.076;13.722;2023-03-02T01:34:23;-2.30;99.90
48264;DHT22;34086;51.076;13.722;2023-03-02T01:35:24;-2.30;99.90
48264;DHT22;34086;51.076;13.722;2023-03-02T01:36:25;-2.30;99.90
48264;DHT22;34086;51.076;13.722;2023-03-02T01:37:25;-2.30;99.90
48264;DHT22;34086;51.076;13.722;2023-03-02T01:38:27;-2.30;99.90
48264;DHT22;34086;51.076;13.722;2023-03-02T01:39:27;-2.40;99.90
48264;DHT22;34086;51.076;13.722;2023-03-02T01:40:28;-2.30;99.90
48264;DHT22;34086;51.076;13.722;2023-03-02T01:41:29;-2.30;99.90
48264;DHT22;34086;51.076;13.722;2023-03-02T01:42:38;-2.40;99.90
48264;DHT22;34086;51.076;13.722;2023-03-02T01:43:39;-2.30;99.90
48264;DHT22;34086;51.076;13.722;2023-03-02T01:44:46;-2.40;99.90
48264;DHT22;34086;51.076;13.722;2023-03-02T01:45:54;-2.40;99.90
48264;DHT22;34086;51.076;13.722;2023-03-02T01:47:31;-2.40;99.90
48264;DHT22;34086;51.076;13.722;2023-03-02T01:50:28;-2.40;99.90
48264;DHT22;34086;51.076;13.722;2023-03-02T01:51:39;-2.40;99.90
48264;DHT22;34086;51.076;13.722;2023-03-02T01:52:41;-2.50;99.90
48264;DHT22;34086;51.076;13.722;2023-03-02T01:53:44;-2.40;99.90
48264;DHT22;34086;51.076;13.722;2023-03-02T01:54:47;-2.50;99.90
48264;DHT22;34086;51.076;13.722;2023-03-02T01:55:49;-2.50;99.90
48264;DHT22;34086;51.076;13.722;2023-03-02T01:56:58;-2.50;99.90
48264;DHT22;34086;51.076;13.722;2023-03-02T01:58:01;-2.50;99.90
48264;DHT22;34086;51.076;13.722;2023-03-02T01:59:06;-2.50;99.90
48264;DHT22;34086;51.076;13.722;2023-03-02T02:00:15;-2.50;99.90
48264;DHT22;34086;51.076;13.722;2023-03-02T02:01:20;-2.50;99.90
48264;DHT22;34086;51.076;13.722;2023-03-02T02:02:22;-2.50;99.90
48264;DHT22;34086;51.076;13.722;2023-03-02T02:03:26;-2.50;99.90
48264;DHT22;34086;51.076;13.722;2023-03-02T02:04:29;-2.50;99.90
48264;DHT22;34086;51.076;13.722;2023-03-02T02:05:31;-2.50;99.90
48264;DHT22;34086;51.076;13.722;2023-03-02T02:06:37;-2.50;99.90
48264;DHT22;34086;51.076;13.722;2023-03-02T02:07:38;-2.50;99.90
48264;DHT22;34086;51.076;13.722;2023-03-02T02:08:39;-2.50;99.90
48264;DHT22;34086;51.076;13.722;2023-03-02T02:09:43;-2.50;99.90
48264;DHT22;34086;51.076;13.722;2023-03-02T02:10:44;-2.60;99.90
48264;DHT22;34086;51.076;13.722;2023-03-02T02:11:45;-2.60;99.90
48264;DHT22;34086;51.076;13.722;2023-03-02T02:12:46;-2.60;99.90
48264;DHT22;34086;51.076;13.722;2023-03-02T02:13:47;-2.60;99.90
48264;DHT22;34086;51.076;13.722;2023-03-02T02:14:48;-2.60;99.90
48264;DHT22;34086;51.076;13.722;2023-03-02T02:15:50;-2.60;99.90
48264;DHT22;34086;51.076;13.722;2023-03-02T02:16:51;-2.60;99.90
48264;DHT22;34086;51.076;13.722;2023-03-02T02:17:51;-2.60;99.90
48264;DHT22;34086;51.076;13.722;2023-03-02T02:18:54;-2.60;99.90
48264;DHT22;34086;51.076;13.722;2023-03-02T02:20:12;-2.70;99.90
48264;DHT22;34086;51.076;13.722;2023-03-02T02:21:20;-2.70;99.90
48264;DHT22;34086;51.076;13.722;2023-03-02T02:22:49;-2.60;99.90
48264;DHT22;34086;51.076;13.722;2023-03-02T02:24:00;-2.60;99.90
48264;DHT22;34086;51.076;13.722;2023-03-02T02:25:04;-2.60;99.90
48264;DHT22;34086;51.076;13.722;2023-03-02T02:26:16;-2.60;99.90
48264;DHT22;34086;51.076;13.722;2023-03-02T02:27:18;-2.60;99.90
48264;DHT22;34086;51.076;13.722;2023-03-02T02:28:26;-2.60;99.90
48264;DHT22;34086;51.076;13.722;2023-03-02T02:29:30;-2.60;99.90
48264;DHT22;34086;51.076;13.722;2023-03-02T02:30:35;-2.60;99.90
48264;DHT22;34086;51.076;13.722;2023-03-02T02:31:45;-2.60;99.90
48264;DHT22;34086;51.076;13.722;2023-03-02T02:32:47;-2.60;99.90
48264;DHT22;34086;51.076;13.722;2023-03-02T02:33:57;-2.70;99.90
48264;DHT22;34086;51.076;13.722;2023-03-02T02:35:11;-2.70;99.90
48264;DHT22;34086;51.076;13.722;2023-03-02T02:36:17;-2.70;99.90
48264;DHT22;34086;51.076;13.722;2023-03-02T02:37:42;-2.70;99.90
48264;DHT22;34086;51.076;13.722;2023-03-02T02:38:46;-2.70;99.90
48264;DHT22;34086;51.076;13.722;2023-03-02T02:39:50;-2.70;99.90
48264;DHT22;34086;51.076;13.722;2023-03-02T02:40:58;-2.80;99.90
48264;DHT22;34086;51.076;13.722;2023-03-02T02:42:09;-2.80;99.90
48264;DHT22;34086;51.076;13.722;2023-03-02T02:43:12;-2.80;99.90
48264;DHT22;34086;51.076;13.722;2023-03-02T02:44:15;-2.80;99.90
48264;DHT22;34086;51.076;13.722;2023-03-02T02:45:23;-2.80;99.90
48264;DHT22;34086;51.076;13.722;2023-03-02T02:46:25;-2.80;99.90
48264;DHT22;34086;51.076;13.722;2023-03-02T02:47:27;-2.80;99.90
48264;DHT22;34086;51.076;13.722;2023-03-02T02:48:30;-2.80;99.90
48264;DHT22;34086;51.076;13.722;2023-03-02T02:49:37;-2.80;99.90
48264;DHT22;34086;51.076;13.722;2023-03-02T02:50:38;-2.80;99.90
48264;DHT22;34086;51.076;13.722;2023-03-02T02:51:39;-2.80;99.90
48264;DHT22;34086;51.076;13.722;2023-03-02T02:52:40;-2.80;99.90
48264;DHT22;34086;51.076;13.722;2023-03-02T02:53:46;-2.80;99.90
48264;DHT22;34086;51.076;13.722;2023-03-02T02:54:50;-2.80;99.90
48264;DHT22;34086;51.076;13.722;2023-03-02T02:55:54;-2.80;99.90
48264;DHT22;34086;51.076;13.722;2023-03-02T02:56:57;-2.80;99.90
48264;DHT22;34086;51.076;13.722;2023-03-02T02:58:01;-2.80;99.90
48264;DHT22;34086;51.076;13.722;2023-03-02T02:59:27;-2.80;99.90
48264;DHT22;34086;51.076;13.722;2023-03-02T03:00:31;-2.80;99.90
48264;DHT22;34086;51.076;13.722;2023-03-02T03:01:33;-2.80;99.90
48264;DHT22;34086;51.076;13.722;2023-03-02T03:02:40;-2.80;99.90
48264;DHT22;34086;51.076;13.722;2023-03-02T03:03:54;-2.80;99.90
48264;DHT22;34086;51.076;13.722;2023-03-02T03:04:55;-2.80;99.90
48264;DHT22;34086;51.076;13.722;2023-03-02T03:06:07;-2.90;99.90
48264;DHT22;34086;51.076;13.722;2023-03-02T03:07:11;-2.80;99.90
48264;DHT22;34086;51.076;13.722;2023-03-02T03:10:07;-2.90;99.90
48264;DHT22;34086;51.076;13.722;2023-03-02T03:11:17;-2.90;99.90
48264;DHT22;34086;51.076;13.722;2023-03-02T03:12:24;-2.90;99.90
48264;DHT22;34086;51.076;13.722;2023-03-02T03:13:26;-2.90;99.90
48264;DHT22;34086;51.076;13.722;2023-03-02T03:14:32;-2.90;99.90
48264;DHT22;34086;51.076;13.722;2023-03-02T03:15:33;-2.90;99.90
48264;DHT22;34086;51.076;13.722;2023-03-02T03:16:35;-2.90;99.90
48264;DHT22;34086;51.076;13.722;2023-03-02T03:17:36;-2.90;99.90
48264;DHT22;34086;51.076;13.722;2023-03-02T03:18:37;-2.90;99.90
48264;DHT22;34086;51.076;13.722;2023-03-02T03:19:41;-2.90;99.90
48264;DHT22;34086;51.076;13.722;2023-03-02T03:20:42;-2.90;99.90
48264;DHT22;34086;51.076;13.722;2023-03-02T03:21:45;-2.90;99.90
48264;DHT22;34086;51.076;13.722;2023-03-02T03:22:46;-2.90;99.90
48264;DHT22;34086;51.076;13.722;2023-03-02T03:23:48;-2.90;99.90
48264;DHT22;34086;51.076;13.722;2023-03-02T03:24:49;-2.90;99.90
48264;DHT22;34086;51.076;13.722;2023-03-02T03:25:51;-2.90;99.90
48264;DHT22;34086;51.076;13.722;2023-03-02T03:26:52;-2.90;99.90
48264;DHT22;34086;51.076;13.722;2023-03-02T03:27:57;-2.90;99.90
48264;DHT22;34086;51.076;13.722;2023-03-02T03:28:58;-3.00;99.90
48264;DHT22;34086;51.076;13.722;2023-03-02T03:29:59;-3.00;99.90
48264;DHT22;34086;51.076;13.722;2023-03-02T03:31:02;-3.00;99.90
48264;DHT22;34086;51.076;13.722;2023-03-02T03:32:03;-3.00;99.90
48264;DHT22;34086;51.076;13.722;2023-03-02T03:33:04;-3.00;99.90
48264;DHT22;34086;51.076;13.722;2023-03-02T03:34:06;-3.00;99.90
48264;DHT22;34086;51.076;13.722;2023-03-02T03:35:09;-3.00;99.90
48264;DHT22;34086;51.076;13.722;2023-03-02T03:36:12;-3.00;99.90
48264;DHT22;34086;51.076;13.722;2023-03-02T03:37:16;-3.00;99.90
48264;DHT22;34086;51.076;13.722;2023-03-02T03:38:17;-3.00;99.90
48264;DHT22;34086;51.076;13.722;2023-03-02T03:39:20;-3.00;99.90
48264;DHT22;34086;51.076;13.722;2023-03-02T03:40:22;-3.10;99.90
48264;DHT22;34086;51.076;13.722;2023-03-02T03:41:23;-3.10;99.90
48264;DHT22;34086;51.076;13.722;2023-03-02T03:42:23;-3.10;99.90
48264;DHT22;34086;51.076;13.722;2023-03-02T03:43:24;-3.10;99.90
48264;DHT22;34086;51.076;13.722;2023-03-02T03:44:28;-3.10;99.90
48264;DHT22;34086;51.076;13.722;2023-03-02T03:45:29;-3.10;99.90
48264;DHT22;34086;51.076;13.722;2023-03-02T03:46:31;-3.10;99.90
48264;DHT22;34086;51.076;13.722;2023-03-02T03:47:32;-3.10;99.90
48264;DHT22;34086;51.076;13.722;2023-03-02T03:48:33;-3.10;99.90
48264;DHT22;34086;51.076;13.722;2023-03-02T03:49:34;-3.10;99.90
48264;DHT22;34086;51.076;13.722;2023-03-02T03:50:35;-3.10;99.90
48264;DHT22;34086;51.076;13.722;2023-03-02T03:51:36;-3.10;99.90
48264;DHT22;34086;51.076;13.722;2023-03-02T03:52:39;-3.10;99.90
48264;DHT22;34086;51.076;13.722;2023-03-02T03:53:48;-3.10;99.90
48264;DHT22;34086;51.076;13.722;2023-03-02T03:55:02;-3.10;99.90
48264;DHT22;34086;51.076;13.722;2023-03-02T03:56:03;-3.10;99.90
48264;DHT22;34086;51.076;13.722;2023-03-02T03:57:03;-3.10;99.90
48264;DHT22;34086;51.076;13.722;2023-03-02T03:58:04;-3.10;99.90
48264;DHT22;34086;51.076;13.722;2023-03-02T03:59:07;-3.10;99.90
48264;DHT22;34086;51.076;13.722;2023-03-02T04:00:14;-3.10;99.90
48264;DHT22;34086;51.076;13.722;2023-03-02T04:01:21;-3.20;99.90
48264;DHT22;34086;51.076;13.722;2023-03-02T04:02:21;-3.20;99.90
48264;DHT22;34086;51.076;13.722;2023-03-02T04:03:23;-3.20;99.90
48264;DHT22;34086;51.076;13.722;2023-03-02T04:04:33;-3.10;99.90
48264;DHT22;34086;51.076;13.722;2023-03-02T04:05:36;-3.10;99.90
48264;DHT22;34086;51.076;13.722;2023-03-02T04:06:37;-3.20;99.90
48264;DHT22;34086;51.076;13.722;2023-03-02T04:07:39;-3.20;99.90
48264;DHT22;34086;51.076;13.722;2023-03-02T04:08:40;-3.20;99.90
48264;DHT22;34086;51.076;13.722;2023-03-02T04:09:41;-3.20;99.90
48264;DHT22;34086;51.076;13.722;2023-03-02T04:10:44;-3.20;99.90
48264;DHT22;34086;51.076;13.722;2023-03-02T04:11:47;-3.20;99.90
48264;DHT22;34086;51.076;13.722;2023-03-02T04:12:49;-3.20;99.90
48264;DHT22;34086;51.076;13.722;2023-03-02T04:13:49;-3.20;99.90
48264;DHT22;34086;51.076;13.722;2023-03-02T04:14:50;-3.20;99.90
48264;DHT22;34086;51.076;13.722;2023-03-02T04:15:50;-3.20;99.90
48264;DHT22;34086;51.076;13.722;2023-03-02T04:16:51;-3.20;99.90
48264;DHT22;34086;51.076;13.722;2023-03-02T04:17:53;-3.20;99.90
48264;DHT22;34086;51.076;13.722;2023-03-02T04:18:56;-3.20;99.90
48264;DHT22;34086;51.076;13.722;2023-03-02T04:19:57;-3.20;99.90
48264;DHT22;34086;51.076;13.722;2023-03-02T04:20:58;-3.20;99.90
48264;DHT22;34086;51.076;13.722;2023-03-02T04:21:59;-3.20;99.90
48264;DHT22;34086;51.076;13.722;2023-03-02T04:23:01;-3.20;99.90
48264;DHT22;34086;51.076;13.722;2023-03-02T04:24:01;-3.20;99.90
48264;DHT22;34086;51.076;13.722;2023-03-02T04:25:02;-3.20;99.90
48264;DHT22;34086;51.076;13.722;2023-03-02T04:26:04;-3.20;99.90
48264;DHT22;34086;51.076;13.722;2023-03-02T04:27:05;-3.20;99.90
48264;DHT22;34086;51.076;13.722;2023-03-02T04:28:07;-3.30;99.90
48264;DHT22;34086;51.076;13.722;2023-03-02T04:29:12;-3.30;99.90
48264;DHT22;34086;51.076;13.722;2023-03-02T04:30:15;-3.30;99.90
48264;DHT22;34086;51.076;13.722;2023-03-02T04:31:16;-3.30;99.90
48264;DHT22;34086;51.076;13.722;2023-03-02T04:32:17;-3.30;99.90
48264;DHT22;34086;51.076;13.722;2023-03-02T04:33:22;-3.30;99.90
48264;DHT22;34086;51.076;13.722;2023-03-02T04:34:23;-3.30;99.90
48264;DHT22;34086;51.076;13.722;2023-03-02T04:35:25;-3.30;99.90
48264;DHT22;34086;51.076;13.722;2023-03-02T04:36:26;-3.30;99.90
48264;DHT22;34086;51.076;13.722;2023-03-02T04:37:26;-3.30;99.90
48264;DHT22;34086;51.076;13.722;2023-03-02T04:38:27;-3.30;99.90
48264;DHT22;34086;51.076;13.722;2023-03-02T04:39:28;-3.30;99.90
48264;DHT22;34086;51.076;13.722;2023-03-02T04:40:29;-3.30;99.90
48264;DHT22;34086;51.076;13.722;2023-03-02T04:41:30;-3.30;99.90
48264;DHT22;34086;51.076;13.722;2023-03-02T04:42:30;-3.30;99.90
48264;DHT22;34086;51.076;13.722;2023-03-02T04:43:31;-3.30;99.90
48264;DHT22;34086;51.076;13.722;2023-03-02T04:44:31;-3.30;99.90
48264;DHT22;34086;51.076;13.722;2023-03-02T04:45:32;-3.30;99.90
48264;DHT22;34086;51.076;13.722;2023-03-02T04:46:32;-3.30;99.90
48264;DHT22;34086;51.076;13.722;2023-03-02T04:47:33;-3.30;99.90
48264;DHT22;34086;51.076;13.722;2023-03-02T04:48:34;-3.40;99.90
48264;DHT22;34086;51.076;13.722;2023-03-02T04:49:34;-3.40;99.90
48264;DHT22;34086;51.076;13.722;2023-03-02T04:50:35;-3.30;99.90
48264;DHT22;34086;51.076;13.722;2023-03-02T04:51:39;-3.40;99.90
48264;DHT22;34086;51.076;13.722;2023-03-02T04:52:40;-3.40;99.90
48264;DHT22;34086;51.076;13.722;2023-03-02T04:53:41;-3.40;99.90
48264;DHT22;34086;51.076;13.722;2023-03-02T04:54:41;-3.40;99.90
48264;DHT22;34086;51.076;13.722;2023-03-02T04:55:42;-3.40;99.90
48264;DHT22;34086;51.076;13.722;2023-03-02T04:56:43;-3.40;99.90
48264;DHT22;34086;51.076;13.722;2023-03-02T04:57:48;-3.40;99.90
48264;DHT22;34086;51.076;13.722;2023-03-02T04:58:49;-3.40;99.90
48264;DHT22;34086;51.076;13.722;2023-03-02T04:59:49;-3.40;99.90
48264;DHT22;34086;51.076;13.722;2023-03-02T05:00:50;-3.40;99.90
48264;DHT22;34086;51.076;13.722;2023-03-02T05:01:52;-3.40;99.90
48264;DHT22;34086;51.076;13.722;2023-03-02T05:02:53;-3.40;99.90
48264;DHT22;34086;51.076;13.722;2023-03-02T05:03:53;-3.50;99.90
48264;DHT22;34086;51.076;13.722;2023-03-02T05:04:54;-3.50;99.90
48264;DHT22;34086;51.076;13.722;2023-03-02T05:05:54;-3.40;99.90
48264;DHT22;34086;51.076;13.722;2023-03-02T05:06:56;-3.50;99.90
48264;DHT22;34086;51.076;13.722;2023-03-02T05:07:58;-3.50;99.90
48264;DHT22;34086;51.076;13.722;2023-03-02T05:08:58;-3.50;99.90
48264;DHT22;34086;51.076;13.722;2023-03-02T05:09:59;-3.50;99.90
48264;DHT22;34086;51.076;13.722;2023-03-02T05:11:00;-3.50;99.90
48264;DHT22;34086;51.076;13.722;2023-03-02T05:12:01;-3.50;99.90
48264;DHT22;34086;51.076;13.722;2023-03-02T05:13:01;-3.50;99.90
48264;DHT22;34086;51.076;13.722;2023-03-02T05:14:06;-3.50;99.90
48264;DHT22;34086;51.076;13.722;2023-03-02T05:15:07;-3.50;99.90
48264;DHT22;34086;51.076;13.722;2023-03-02T05:16:08;-3.50;99.90
48264;DHT22;34086;51.076;13.722;2023-03-02T05:17:08;-3.50;99.90
48264;DHT22;34086;51.076;13.722;2023-03-02T05:18:10;-3.50;99.90
48264;DHT22;34086;51.076;13.722;2023-03-02T05:19:11;-3.50;99.90
48264;DHT22;34086;51.076;13.722;2023-03-02T05:20:12;-3.50;99.90
48264;DHT22;34086;51.076;13.722;2023-03-02T05:21:13;-3.50;99.90
48264;DHT22;34086;51.076;13.722;2023-03-02T05:22:14;-3.50;99.90
48264;DHT22;34086;51.076;13.722;2023-03-02T05:23:16;-3.50;99.90
48264;DHT22;34086;51.076;13.722;2023-03-02T05:24:23;-3.50;99.90
48264;DHT22;34086;51.076;13.722;2023-03-02T05:25:25;-3.50;99.90
48264;DHT22;34086;51.076;13.722;2023-03-02T05:26:25;-3.50;99.90
48264;DHT22;34086;51.076;13.722;2023-03-02T05:27:26;-3.50;99.90
48264;DHT22;34086;51.076;13.722;2023-03-02T05:28:27;-3.50;99.90
48264;DHT22;34086;51.076;13.722;2023-03-02T05:29:28;-3.50;99.90
48264;DHT22;34086;51.076;13.722;2023-03-02T05:30:28;-3.50;99.90
48264;DHT22;34086;51.076;13.722;2023-03-02T05:31:35;-3.50;99.90
48264;DHT22;34086;51.076;13.722;2023-03-02T05:32:37;-3.60;99.90
48264;DHT22;34086;51.076;13.722;2023-03-02T05:33:37;-3.60;99.90
48264;DHT22;34086;51.076;13.722;2023-03-02T05:34:38;-3.60;99.90
48264;DHT22;34086;51.076;13.722;2023-03-02T05:35:39;-3.60;99.90
48264;DHT22;34086;51.076;13.722;2023-03-02T05:36:40;-3.60;99.90
48264;DHT22;34086;51.076;13.722;2023-03-02T05:37:41;-3.60;99.90
48264;DHT22;34086;51.076;13.722;2023-03-02T05:38:44;-3.60;99.90
48264;DHT22;34086;51.076;13.722;2023-03-02T05:39:44;-3.60;99.90
48264;DHT22;34086;51.076;13.722;2023-03-02T05:40:45;-3.60;99.90
48264;DHT22;34086;51.076;13.722;2023-03-02T05:41:45;-3.60;99.90
48264;DHT22;34086;51.076;13.722;2023-03-02T05:42:46;-3.60;99.90
48264;DHT22;34086;51.076;13.722;2023-03-02T05:43:47;-3.60;99.90
48264;DHT22;34086;51.076;13.722;2023-03-02T05:44:48;-3.60;99.90
48264;DHT22;34086;51.076;13.722;2023-03-02T05:45:49;-3.60;99.90
48264;DHT22;34086;51.076;13.722;2023-03-02T05:46:49;-3.60;99.90
48264;DHT22;34086;51.076;13.722;2023-03-02T05:47:50;-3.60;99.90
48264;DHT22;34086;51.076;13.722;2023-03-02T05:48:51;-3.60;99.90
48264;DHT22;34086;51.076;13.722;2023-03-02T05:49:51;-3.60;99.90
48264;DHT22;34086;51.076;13.722;2023-03-02T05:50:52;-3.60;99.90
48264;DHT22;34086;51.076;13.722;2023-03-02T05:51:52;-3.60;99.90
48264;DHT22;34086;51.076;13.722;2023-03-02T05:52:53;-3.60;99.90
48264;DHT22;34086;51.076;13.722;2023-03-02T05:53:53;-3.60;99.90
48264;DHT22;34086;51.076;13.722;2023-03-02T05:54:54;-3.60;99.90
48264;DHT22;34086;51.076;13.722;2023-03-02T05:55:54;-3.60;99.90
48264;DHT22;34086;51.076;13.722;2023-03-02T05:56:55;-3.60;99.90
48264;DHT22;34086;51.076;13.722;2023-03-02T05:57:56;-3.60;99.90
48264;DHT22;34086;51.076;13.722;2023-03-02T05:58:56;-3.60;99.90
48264;DHT22;34086;51.076;13.722;2023-03-02T05:59:57;-3.60;99.90
48264;DHT22;34086;51.076;13.722;2023-03-02T06:00:58;-3.50;99.90
48264;DHT22;34086;51.076;13.722;2023-03-02T06:01:58;-3.60;99.90
48264;DHT22;34086;51.076;13.722;2023-03-02T06:02:59;-3.60;99.90
48264;DHT22;34086;51.076;13.722;2023-03-02T06:04:00;-3.60;99.90
48264;DHT22;34086;51.076;13.722;2023-03-02T06:05:00;-3.60;99.90
48264;DHT22;34086;51.076;13.722;2023-03-02T06:06:01;-3.60;99.90
48264;DHT22;34086;51.076;13.722;2023-03-02T06:07:01;-3.60;99.90
48264;DHT22;34086;51.076;13.722;2023-03-02T06:08:02;-3.60;99.90
48264;DHT22;34086;51.076;13.722;2023-03-02T06:09:04;-3.60;99.90
48264;DHT22;34086;51.076;13.722;2023-03-02T06:10:05;-3.50;99.90
48264;DHT22;34086;51.076;13.722;2023-03-02T06:11:06;-3.50;99.90
48264;DHT22;34086;51.076;13.722;2023-03-02T06:12:08;-3.50;99.90
48264;DHT22;34086;51.076;13.722;2023-03-02T06:13:09;-3.50;99.90
48264;DHT22;34086;51.076;13.722;2023-03-02T06:14:09;-3.50;99.90
48264;DHT22;34086;51.076;13.722;2023-03-02T06:15:10;-3.50;99.90
48264;DHT22;34086;51.076;13.722;2023-03-02T06:16:11;-3.40;99.90
48264;DHT22;34086;51.076;13.722;2023-03-02T06:17:11;-3.40;99.90
48264;DHT22;34086;51.076;13.722;2023-03-02T06:18:12;-3.40;99.90
48264;DHT22;34086;51.076;13.722;2023-03-02T06:19:13;-3.40;99.90
48264;DHT22;34086;51.076;13.722;2023-03-02T06:20:14;-3.40;99.90
48264;DHT22;34086;51.076;13.722;2023-03-02T06:21:16;-3.30;99.90
48264;DHT22;34086;51.076;13.722;2023-03-02T06:22:16;-3.30;99.90
48264;DHT22;34086;51.076;13.722;2023-03-02T06:23:17;-3.30;99.90
48264;DHT22;34086;51.076;13.722;2023-03-02T06:24:18;-3.30;99.90
48264;DHT22;34086;51.076;13.722;2023-03-02T06:25:23;-3.30;99.90
48264;DHT22;34086;51.076;13.722;2023-03-02T06:26:23;-3.20;99.90
48264;DHT22;34086;51.076;13.722;2023-03-02T06:27:24;-3.20;99.90
48264;DHT22;34086;51.076;13.722;2023-03-02T06:28:25;-3.20;99.90
48264;DHT22;34086;51.076;13.722;2023-03-02T06:29:26;-3.20;99.90
48264;DHT22;34086;51.076;13.722;2023-03-02T06:30:26;-3.20;99.90
48264;DHT22;34086;51.076;13.722;2023-03-02T06:31:27;-3.20;99.90